This is the latest recevied weather packets stored in our database for station/object VU3KEB-13. If no packets are shown the sender has not sent any weather packets the latest 10 day(s).
| Time | Temp. | Humidity | Pressure | Rain* | Wind** | Luminosity | Snow |
|---|---|---|---|---|---|---|---|
| 1788163009 | 83° F | 53% | 766.5 mmHg | - | - | - | - |
| 1788161794 | 83° F | 53% | 766.5 mmHg | - | - | - | - |
| 1788160580 | 83° F | 53% | 766.5 mmHg | - | - | - | - |
| 1788159365 | 82° F | 55% | 767.3 mmHg | - | - | - | - |
| 1788158147 | 83° F | 51% | 767.7 mmHg | - | - | - | - |
| 1788156933 | 82° F | 51% | 767.7 mmHg | - | - | - | - |
| 1788155717 | 81° F | 55% | 768.3 mmHg | - | - | - | - |
| 1788154499 | 81° F | 55% | 768.3 mmHg | - | - | - | - |
| 1788153281 | 79° F | 60% | 768.5 mmHg | - | - | - | - |
| 1788152067 | 78° F | 60% | 768.5 mmHg | - | - | - | - |
| 1788150847 | 78° F | 60% | 768.5 mmHg | - | - | - | - |
| 1788149625 | 76° F | 70% | 768.4 mmHg | - | - | - | - |
| 1788010309 | 74° F | 76% | 766.7 mmHg | - | - | - | - |
| 1788009094 | 74° F | 80% | 766 mmHg | - | - | - | - |
| 1788007877 | 74° F | 80% | 766 mmHg | - | - | - | - |
| 1788006663 | 73° F | 80% | 766 mmHg | - | - | - | - |
| 1788005449 | 79° F | 64% | 765.7 mmHg | - | - | - | - |
| 1788004234 | 79° F | 64% | 765.7 mmHg | - | - | - | - |
| 1788003019 | 78° F | 64% | 765.7 mmHg | - | - | - | - |
| 1788001805 | 78° F | 72% | 765.5 mmHg | - | - | - | - |
| 1788000591 | 80° F | 72% | 765.5 mmHg | - | - | - | - |
| 1787999377 | 83° F | 72% | 765.5 mmHg | - | - | - | - |
| 1787998163 | 84° F | 53% | 765.7 mmHg | - | - | - | - |
| 1787996948 | 85° F | 53% | 765.7 mmHg | - | - | - | - |
| 1787995733 | 85° F | 53% | 765.7 mmHg | - | - | - | - |
* Rain since midnight (hover to see other rain measurements)
** Current wind speed in m/s (hover to see current wind gust speed)